Time;durP1;ratioP1;P1;durP2;ratioP2;P2;SDS_P1;SDS_P2;PMS_P1;PMS_P2;Temp;Humidity;BMP_temperature;BMP_pressure;BME280_temperature;BME280_humidity;BME280_pressure;Samples;Min_cycle;Max_cycle;Signal;HPM_P1;HPM_P2
2021/01/10 00:00:43;;;;;;;;;;;;;;;-1.50;76.89;99396.97;2143883;83;20242;-65
2021/01/10 00:03:47;;;;;;;;;;;;;;;-1.50;75.85;99401.27;2143965;83;20234;-65
2021/01/10 00:06:49;;;;;;;;;;;;;;;-1.53;76.26;99399.55;2144300;83;20223;-65
2021/01/10 00:09:51;;;;;;;;;;;;;;;-1.53;75.77;99396.98;2144074;83;20231;-65
2021/01/10 00:12:53;;;;;;;;;;;;;;;-1.53;75.77;99400.84;2143909;83;20283;-66
2021/01/10 00:15:56;;;;;;;;;;;;;;;-1.53;74.71;99405.14;2144055;83;20255;-68
2021/01/10 00:18:58;;;;;;;;;;;;;;;-1.52;74.58;99410.28;2143939;83;20499;-65
2021/01/10 00:22:00;;;;;;;;;;;;;;;-1.55;74.69;99406.44;2143753;83;20144;-70
2021/01/10 00:25:02;;;;;;;;;;;;;;;-1.54;75.46;99404.27;2143952;82;20535;-68
2021/01/10 00:28:04;;;;;;;;;;;;;;;-1.54;75.58;99415.00;2143812;83;20474;-69
2021/01/10 00:31:06;;;;;;;;;;;;;;;-1.55;75.23;99415.44;2143995;83;20483;-65
2021/01/10 00:34:08;;;;;;;;;;;;;;;-1.54;75.34;99415.84;2144069;83;20232;-65
2021/01/10 00:37:10;;;;;;;;;;;;;;;-1.53;75.76;99421.86;2116891;83;20223;-64
2021/01/10 00:40:12;;;;;;;;;;;;;;;-1.57;76.47;99421.00;2143894;83;20139;-64
2021/01/10 00:43:15;;;;;;;;;;;;;;;-1.58;77.37;99421.84;2143795;83;20150;-65
2021/01/10 00:46:17;;;;;;;;;;;;;;;-1.58;77.03;99425.71;2144073;83;20228;-64
2021/01/10 00:49:19;;;;;;;;;;;;;;;-1.59;77.31;99429.17;2143732;83;20141;-65
2021/01/10 00:52:21;;;;;;;;;;;;;;;-1.62;77.53;99421.02;2144186;83;20136;-65
2021/01/10 00:55:23;;;;;;;;;;;;;;;-1.62;77.85;99425.31;2144041;83;20539;-65
2021/01/10 00:58:25;;;;;;;;;;;;;;;-1.63;78.26;99424.44;2143769;83;20125;-65
2021/01/10 01:01:27;;;;;;;;;;;;;;;-1.63;78.18;99430.02;2143888;83;20495;-65
2021/01/10 01:04:30;;;;;;;;;;;;;;;-1.60;78.61;99431.30;2143819;83;20148;-65
2021/01/10 01:07:32;;;;;;;;;;;;;;;-1.61;78.72;99431.74;2144021;83;20510;-65
2021/01/10 01:10:34;;;;;;;;;;;;;;;-1.61;78.42;99430.87;2144090;83;20530;-65
2021/01/10 01:13:36;;;;;;;;;;;;;;;-1.58;78.98;99433.02;2144457;83;20136;-66
2021/01/10 01:16:39;;;;;;;;;;;;;;;-1.54;78.92;99433.85;2144121;83;20144;-65
2021/01/10 01:19:41;;;;;;;;;;;;;;;-1.53;78.79;99433.00;2144260;83;20247;-65
2021/01/10 01:22:44;;;;;;;;;;;;;;;-1.49;79.15;99433.42;2117052;83;20254;-66
2021/01/10 01:25:46;;;;;;;;;;;;;;;-1.50;79.05;99429.13;2137954;83;20232;-65
2021/01/10 01:28:48;;;;;;;;;;;;;;;-1.49;79.04;99432.58;2127546;84;20388;-66
2021/01/10 01:31:50;;;;;;;;;;;;;;;-1.50;79.32;99434.28;2127085;84;20255;-65
2021/01/10 01:34:52;;;;;;;;;;;;;;;-1.51;79.29;99438.14;2127127;84;20228;-64
2021/01/10 01:37:55;;;;;;;;;;;;;;;-1.50;79.40;99442.44;2127132;83;20262;-65
2021/01/10 01:40:57;;;;;;;;;;;;;;;-1.50;79.42;99435.56;2127408;84;20153;-65
2021/01/10 01:43:59;;;;;;;;;;;;;;;-1.42;79.45;99436.41;2127271;83;20125;-64
2021/01/10 01:47:03;;;;;;;;;;;;;;;-1.41;79.29;99444.97;2127591;83;20235;-65
2021/01/10 01:50:05;;;;;;;;;;;;;;;-1.44;79.32;99442.00;2127315;84;20236;-65
2021/01/10 01:53:09;;;;;;;;;;;;;;;-1.43;79.49;99438.99;2127224;83;20494;-65
2021/01/10 01:56:14;;;;;;;;;;;;;;;-1.42;79.66;99440.71;2127189;83;20137;-65
2021/01/10 01:59:22;;;;;;;;;;;;;;;-1.38;79.71;99431.25;2127147;84;20440;-65
2021/01/10 02:09:55;;;;;;;;;;;;;;;-1.31;79.47;99439.38;2127125;84;20404;-64
2021/01/10 02:12:57;;;;;;;;;;;;;;;-1.29;79.54;99441.53;2127299;83;20229;-65
2021/01/10 02:16:00;;;;;;;;;;;;;;;-1.27;79.62;99437.23;2127321;83;20223;-66
2021/01/10 02:19:03;;;;;;;;;;;;;;;-1.27;79.66;99438.07;2127577;84;20149;-65
2021/01/10 02:22:05;;;;;;;;;;;;;;;-1.30;79.76;99436.80;2127041;83;20236;-65
2021/01/10 02:25:07;;;;;;;;;;;;;;;-1.35;80.04;99440.25;2128176;82;20247;-65
2021/01/10 02:28:09;;;;;;;;;;;;;;;-1.42;80.23;99440.27;2144180;83;20219;-65
2021/01/10 02:31:11;;;;;;;;;;;;;;;-1.45;80.27;99440.69;2144264;83;20234;-69
2021/01/10 02:34:14;;;;;;;;;;;;;;;-1.47;80.34;99440.70;2143921;83;20270;-67
2021/01/10 02:37:16;;;;;;;;;;;;;;;-1.38;80.60;99437.24;2143943;83;20236;-69
2021/01/10 02:40:18;;;;;;;;;;;;;;;-1.31;80.36;99439.38;2143889;83;20239;-66
2021/01/10 02:43:21;;;;;;;;;;;;;;;-1.31;80.23;99447.95;2144011;83;20128;-66
2021/01/10 02:46:24;;;;;;;;;;;;;;;-1.35;80.30;99446.68;2143997;83;20235;-69
2021/01/10 02:49:26;;;;;;;;;;;;;;;-1.37;80.41;99442.83;2144102;83;20228;-70
2021/01/10 02:52:28;;;;;;;;;;;;;;;-1.34;80.39;99446.67;2143865;83;20231;-70
2021/01/10 02:55:31;;;;;;;;;;;;;;;-1.38;80.61;99447.98;2143855;83;20499;-66
2021/01/10 02:58:33;;;;;;;;;;;;;;;-1.38;80.69;99451.84;2143903;83;20219;-66
2021/01/10 03:01:35;;;;;;;;;;;;;;;-1.40;80.68;99444.97;2144291;83;20228;-65
2021/01/10 03:04:37;;;;;;;;;;;;;;;-1.43;80.75;99445.42;2143970;83;20232;-66
2021/01/10 03:07:39;;;;;;;;;;;;;;;-1.37;80.79;99444.55;2143911;83;20175;-65
2021/01/10 03:10:41;;;;;;;;;;;;;;;-1.33;80.87;99443.69;2144231;83;20522;-65
2021/01/10 03:13:44;;;;;;;;;;;;;;;-1.20;81.02;99442.78;2144109;83;20543;-66
2021/01/10 03:16:46;;;;;;;;;;;;;;;-1.05;81.14;99448.30;2143987;83;20236;-65
2021/01/10 03:19:48;;;;;;;;;;;;;;;-0.95;80.79;99440.11;2143864;83;20157;-65
2021/01/10 03:22:50;;;;;;;;;;;;;;;-1.01;80.63;99445.29;2144315;83;20235;-66
2021/01/10 03:25:53;;;;;;;;;;;;;;;-1.08;80.82;99440.58;2144141;83;20490;-66
2021/01/10 03:28:55;;;;;;;;;;;;;;;-1.10;80.98;99444.90;2144108;83;20227;-65
2021/01/10 03:31:57;;;;;;;;;;;;;;;-1.12;81.07;99444.03;2143778;83;20139;-64
2021/01/10 03:35:01;;;;;;;;;;;;;;;-1.16;81.14;99441.91;2144103;83;20247;-65
2021/01/10 03:38:03;;;;;;;;;;;;;;;-1.20;81.37;99438.07;2144333;83;20136;-65
2021/01/10 03:41:05;;;;;;;;;;;;;;;-1.27;81.63;99437.23;2143919;83;20506;-65
2021/01/10 03:44:07;;;;;;;;;;;;;;;-1.35;81.71;99437.27;2143843;83;20165;-65
2021/01/10 03:47:09;;;;;;;;;;;;;;;-1.39;81.78;99439.41;2144271;83;20128;-65
2021/01/10 03:50:11;;;;;;;;;;;;;;;-1.39;81.91;99435.55;2143906;83;20494;-65
2021/01/10 03:53:13;;;;;;;;;;;;;;;-1.36;81.89;99435.54;2143975;83;20263;-65
2021/01/10 03:56:16;;;;;;;;;;;;;;;-1.35;81.84;99429.95;2144312;83;20473;-64
2021/01/10 03:59:18;;;;;;;;;;;;;;;-1.28;81.85;99431.23;2143943;83;20275;-66
2021/01/10 04:02:20;;;;;;;;;;;;;;;-1.24;81.75;99429.05;2144249;83;20251;-65
2021/01/10 04:05:22;;;;;;;;;;;;;;;-1.25;81.78;99431.22;2143814;83;20148;-65
2021/01/10 04:08:24;;;;;;;;;;;;;;;-1.22;81.91;99429.92;2143846;83;20184;-66
2021/01/10 04:11:26;;;;;;;;;;;;;;;-1.18;81.86;99428.61;2143802;83;20135;-65
2021/01/10 04:14:28;;;;;;;;;;;;;;;-1.16;81.75;99434.19;2144183;83;20236;-66
2021/01/10 04:17:30;;;;;;;;;;;;;;;-1.17;81.80;99438.91;2144081;83;20251;-66
2021/01/10 04:20:32;;;;;;;;;;;;;;;-1.18;81.77;99438.47;2143796;83;20179;-65
2021/01/10 04:23:34;;;;;;;;;;;;;;;-1.17;81.83;99436.33;2144238;83;20140;-66
2021/01/10 04:26:36;;;;;;;;;;;;;;;-1.18;81.88;99440.20;2137796;82;20232;-65
2021/01/10 04:29:39;;;;;;;;;;;;;;;-1.22;82.00;99440.66;2126914;84;20243;-65
2021/01/10 04:32:41;;;;;;;;;;;;;;;-1.24;82.00;99443.20;2127084;83;20252;-65
2021/01/10 04:35:43;;;;;;;;;;;;;;;-1.24;81.98;99439.34;2126987;83;20204;-65
2021/01/10 04:38:46;;;;;;;;;;;;;;;-1.28;82.07;99447.09;2126962;83;20228;-65
2021/01/10 04:41:48;;;;;;;;;;;;;;;-1.31;82.05;99447.10;2127351;83;20236;-65
2021/01/10 04:44:50;;;;;;;;;;;;;;;-1.33;82.17;99450.13;2127381;83;20252;-66
2021/01/10 04:47:52;;;;;;;;;;;;;;;-1.28;82.23;99445.39;2127320;83;20233;-65
2021/01/10 04:50:54;;;;;;;;;;;;;;;-1.24;82.26;99445.78;2127004;83;20276;-64
2021/01/10 04:53:56;;;;;;;;;;;;;;;-1.25;82.08;99449.65;2127328;83;20220;-65
2021/01/10 04:57:02;;;;;;;;;;;;;;;-1.34;82.10;99440.68;2106648;84;20180;-65
2021/01/10 05:00:03;;;;;;;;;;;;;;;-1.40;82.38;99435.96;2127122;84;20241;-65
2021/01/10 05:03:05;;;;;;;;;;;;;;;-1.41;82.29;99443.28;2106645;84;20196;-65
2021/01/10 05:06:08;;;;;;;;;;;;;;;-1.39;82.28;99449.70;2127417;84;20267;-65
2021/01/10 05:09:10;;;;;;;;;;;;;;;-1.41;82.45;99457.84;2127145;84;20255;-65
2021/01/10 05:12:12;;;;;;;;;;;;;;;-1.46;82.46;99448.01;2127047;83;20235;-66
2021/01/10 05:15:14;;;;;;;;;;;;;;;-1.45;82.55;99444.14;2127407;83;20129;-67
2021/01/10 05:18:16;;;;;;;;;;;;;;;-1.38;82.51;99451.39;2126874;84;20244;-66
2021/01/10 05:21:19;;;;;;;;;;;;;;;-1.36;82.37;99452.27;2127340;83;20228;-65
2021/01/10 05:24:22;;;;;;;;;;;;;;;-1.41;82.34;99458.72;2126917;83;20231;-65
2021/01/10 05:27:24;;;;;;;;;;;;;;;-1.44;82.63;99460.42;2127028;83;20188;-65
2021/01/10 05:30:26;;;;;;;;;;;;;;;-1.37;82.57;99463.86;2127168;83;20231;-65
2021/01/10 05:33:29;;;;;;;;;;;;;;;-1.32;82.26;99470.70;2126940;83;20145;-65
2021/01/10 05:36:34;;;;;;;;;;;;;;;-1.24;82.17;99473.25;2127175;83;20291;-65
2021/01/10 05:39:36;;;;;;;;;;;;;;;-1.25;82.11;99472.41;2126903;83;20231;-65
2021/01/10 05:42:38;;;;;;;;;;;;;;;-1.24;81.93;99477.11;2126903;83;20232;-65
2021/01/10 05:45:40;;;;;;;;;;;;;;;-1.26;82.06;99483.55;2127320;83;20276;-65
2021/01/10 05:48:42;;;;;;;;;;;;;;;-1.26;81.85;99483.55;2126938;83;20236;-67
2021/01/10 05:51:44;;;;;;;;;;;;;;;-1.32;81.78;99475.86;2127132;83;20228;-66
2021/01/10 05:54:46;;;;;;;;;;;;;;;-1.36;81.75;99487.45;2127455;83;20149;-65
2021/01/10 05:57:54;;;;;;;;;;;;;;;-1.36;81.69;99488.74;2127344;84;20229;-68
2021/01/10 06:00:53;;;;;;;;;;;;;;;-1.33;81.72;99496.01;2106124;84;20496;-65
2021/01/10 06:03:55;;;;;;;;;;;;;;;-1.30;81.73;99488.28;2127200;83;20228;-65
2021/01/10 06:06:57;;;;;;;;;;;;;;;-1.25;81.46;99497.27;2127027;83;20444;-65
2021/01/10 06:10:00;;;;;;;;;;;;;;;-1.25;81.40;99503.30;2127511;83;20229;-65
2021/01/10 06:13:04;;;;;;;;;;;;;;;-1.23;81.44;99509.28;2127238;83;20498;-66
2021/01/10 06:16:06;;;;;;;;;;;;;;;-1.24;81.46;99496.42;2127151;84;20237;-65
2021/01/10 06:19:09;;;;;;;;;;;;;;;-1.18;81.48;99503.27;2127111;83;20153;-64
2021/01/10 06:22:11;;;;;;;;;;;;;;;-1.18;81.41;99513.57;2127036;83;20232;-65
2021/01/10 06:25:13;;;;;;;;;;;;;;;-1.26;81.02;99514.89;2127412;83;20176;-64
2021/01/10 06:28:16;;;;;;;;;;;;;;;-1.36;81.41;99513.19;2134630;83;20224;-65
2021/01/10 06:31:18;;;;;;;;;;;;;;;-1.34;81.72;99517.45;2137327;83;20263;-64
2021/01/10 06:34:20;;;;;;;;;;;;;;;-1.29;81.75;99517.03;2136878;83;20231;-65
2021/01/10 06:37:22;;;;;;;;;;;;;;;-1.22;81.87;99512.30;2137034;83;20419;-69
2021/01/10 06:40:25;;;;;;;;;;;;;;;-1.16;81.78;99517.86;2136784;83;20156;-68
2021/01/10 06:43:27;;;;;;;;;;;;;;;-1.08;81.27;99517.83;2136844;83;20152;-66
2021/01/10 06:46:29;;;;;;;;;;;;;;;-1.07;81.16;99518.27;2137335;83;20271;-66
2021/01/10 06:49:31;;;;;;;;;;;;;;;-1.03;80.39;99514.83;2137068;83;20232;-66
2021/01/10 06:52:33;;;;;;;;;;;;;;;-1.07;80.29;99522.13;2137011;83;20259;-69
2021/01/10 06:55:35;;;;;;;;;;;;;;;-1.07;80.49;99518.27;2137209;83;20223;-66
2021/01/10 06:58:37;;;;;;;;;;;;;;;-1.06;80.57;99527.27;2136947;83;20506;-66
2021/01/10 07:01:40;;;;;;;;;;;;;;;-1.03;80.73;99523.84;2137276;83;20172;-66
2021/01/10 07:04:42;;;;;;;;;;;;;;;-0.98;80.44;99527.23;2137098;83;20235;-65
2021/01/10 07:07:44;;;;;;;;;;;;;;;-0.96;80.14;99525.53;2137081;83;20128;-65
2021/01/10 07:10:46;;;;;;;;;;;;;;;-0.92;79.57;99526.37;2137088;83;20232;-65
2021/01/10 07:13:49;;;;;;;;;;;;;;;-0.89;79.72;99525.94;2136838;83;20136;-66
2021/01/10 07:16:51;;;;;;;;;;;;;;;-0.88;79.58;99520.34;2136824;83;20144;-65
2021/01/10 07:19:53;;;;;;;;;;;;;;;-0.88;79.71;99517.77;2137287;83;20255;-65
2021/01/10 07:22:55;;;;;;;;;;;;;;;-0.85;79.83;99519.05;2136933;83;20508;-66
2021/01/10 07:25:58;;;;;;;;;;;;;;;-0.79;79.52;99522.91;2137297;83;20234;-66
2021/01/10 07:29:00;;;;;;;;;;;;;;;-0.72;78.57;99518.16;2143347;83;20160;-69
2021/01/10 07:32:02;;;;;;;;;;;;;;;-0.71;78.15;99530.16;2143866;83;20137;-67
2021/01/10 07:35:05;;;;;;;;;;;;;;;-0.73;78.05;99529.31;2143930;83;20428;-66
2021/01/10 07:38:07;;;;;;;;;;;;;;;-0.73;77.11;99536.20;2143860;83;20152;-66
2021/01/10 07:41:09;;;;;;;;;;;;;;;-0.76;76.58;99542.22;2143952;83;20490;-65
2021/01/10 07:44:12;;;;;;;;;;;;;;;-0.82;76.99;99545.23;2144105;83;20136;-66
2021/01/10 07:47:14;;;;;;;;;;;;;;;-0.89;77.99;99549.13;2143846;83;20156;-65
2021/01/10 07:50:16;;;;;;;;;;;;;;;-0.83;78.40;99553.41;2143943;83;20130;-65
2021/01/10 07:53:18;;;;;;;;;;;;;;;-0.76;78.86;99556.80;2144292;83;20124;-65
2021/01/10 07:56:20;;;;;;;;;;;;;;;-0.64;78.77;99563.65;2143969;83;20562;-66
2021/01/10 07:59:22;;;;;;;;;;;;;;;-0.63;79.34;99560.19;2143933;83;20231;-66
2021/01/10 08:02:25;;;;;;;;;;;;;;;-0.60;79.37;99562.34;2143765;83;20157;-65
2021/01/10 08:05:27;;;;;;;;;;;;;;;-0.62;79.41;99570.93;2144294;83;20235;-65
2021/01/10 08:08:29;;;;;;;;;;;;;;;-0.62;79.57;99576.08;2143940;83;20227;-66
2021/01/10 08:11:31;;;;;;;;;;;;;;;-0.57;80.14;99577.78;2143979;83;20407;-66
2021/01/10 08:14:34;;;;;;;;;;;;;;;-0.54;80.18;99573.05;2143838;83;20200;-69
2021/01/10 08:17:37;;;;;;;;;;;;;;;-0.51;80.09;99579.92;2143916;83;20549;-65
2021/01/10 08:20:39;;;;;;;;;;;;;;;-0.43;80.43;99570.00;2144272;83;20234;-65
2021/01/10 08:23:42;;;;;;;;;;;;;;;-0.35;80.27;99573.38;2143901;83;20507;-65
2021/01/10 08:26:44;;;;;;;;;;;;;;;-0.28;80.18;99574.22;2142490;83;20148;-65
2021/01/10 08:29:46;;;;;;;;;;;;;;;-0.24;80.13;99578.94;2127298;83;20236;-65
2021/01/10 08:32:48;;;;;;;;;;;;;;;-0.18;80.51;99578.46;2127067;84;20503;-67
2021/01/10 08:35:51;;;;;;;;;;;;;;;-0.06;79.85;99580.55;2126964;83;20224;-66
2021/01/10 08:38:53;;;;;;;;;;;;;;;-0.07;79.95;99582.28;2126937;83;20280;-66
2021/01/10 08:41:55;;;;;;;;;;;;;;;-0.08;80.05;99579.72;2127073;84;20502;-66
2021/01/10 08:44:57;;;;;;;;;;;;;;;-0.03;80.05;99571.50;2126965;83;20224;-65
2021/01/10 08:47:59;;;;;;;;;;;;;;;0.03;79.89;99574.06;2127088;84;20137;-65
2021/01/10 08:51:01;;;;;;;;;;;;;;;0.17;79.55;99573.95;2127414;83;20165;-65
2021/01/10 08:54:04;;;;;;;;;;;;;;;0.22;79.74;99571.37;2126972;84;20271;-65
2021/01/10 08:57:06;;;;;;;;;;;;;;;0.19;79.02;99577.40;2126908;83;20157;-66
2021/01/10 09:00:09;;;;;;;;;;;;;;;0.19;79.56;99571.36;2127185;83;20504;-65
2021/01/10 09:03:12;;;;;;;;;;;;;;;0.10;78.97;99573.58;2127146;84;20487;-65
2021/01/10 09:06:14;;;;;;;;;;;;;;;0.08;79.39;99577.90;2127421;84;20148;-66
2021/01/10 09:09:17;;;;;;;;;;;;;;;0.10;79.30;99577.03;2126935;84;20510;-65
2021/01/10 09:12:19;;;;;;;;;;;;;;;0.17;79.27;99572.66;2126986;84;20227;-67
2021/01/10 09:15:21;;;;;;;;;;;;;;;0.15;79.06;99578.28;2127169;84;20248;-65
2021/01/10 09:18:24;;;;;;;;;;;;;;;0.29;79.59;99577.75;2126937;83;20347;-65
2021/01/10 09:21:28;;;;;;;;;;;;;;;0.41;79.18;99584.55;2127130;83;20419;-68
2021/01/10 09:24:31;;;;;;;;;;;;;;;0.44;78.89;99583.22;2126969;83;20133;-67
2021/01/10 09:27:34;;;;;;;;;;;;;;;0.40;78.76;99585.41;2129814;83;20184;-66
2021/01/10 09:30:36;;;;;;;;;;;;;;;0.47;79.06;99584.48;2136853;83;20227;-66
2021/01/10 09:33:38;;;;;;;;;;;;;;;0.54;79.13;99582.72;2137305;83;20136;-66
2021/01/10 09:36:40;;;;;;;;;;;;;;;0.67;78.09;99580.90;2136946;83;20148;-67
2021/01/10 09:39:42;;;;;;;;;;;;;;;0.74;79.02;99577.84;2137180;83;20148;-67
2021/01/10 09:42:44;;;;;;;;;;;;;;;0.86;78.03;99581.58;2108781;83;20239;-66
2021/01/10 09:45:48;;;;;;;;;;;;;;;0.89;78.31;99580.70;2137067;83;20491;-65
2021/01/10 09:48:50;;;;;;;;;;;;;;;0.94;77.32;99582.81;2136919;83;20145;-65
2021/01/10 09:51:52;;;;;;;;;;;;;;;0.86;77.85;99585.45;2136940;83;20527;-67
2021/01/10 09:54:55;;;;;;;;;;;;;;;0.96;78.25;99578.48;2137108;83;20220;-68
2021/01/10 09:57:57;;;;;;;;;;;;;;;1.12;78.08;99574.89;2137197;83;20503;-68
2021/01/10 10:00:59;;;;;;;;;;;;;;;1.32;78.14;99575.96;2136891;83;20223;-66
2021/01/10 10:04:01;;;;;;;;;;;;;;;1.53;76.84;99575.28;2137291;83;20156;-65
2021/01/10 10:07:04;;;;;;;;;;;;;;;1.65;76.99;99567.37;2136913;83;20271;-65
2021/01/10 10:10:06;;;;;;;;;;;;;;;1.80;76.61;99573.23;2136901;83;20232;-66
2021/01/10 10:13:09;;;;;;;;;;;;;;;1.93;75.83;99572.63;2137247;83;20148;-65
2021/01/10 10:16:11;;;;;;;;;;;;;;;2.04;75.93;99571.59;2136928;83;20247;-65
2021/01/10 10:19:13;;;;;;;;;;;;;;;2.25;76.16;99574.73;2137111;83;20569;-65
2021/01/10 10:22:16;;;;;;;;;;;;;;;2.52;75.67;99567.42;2137109;83;20231;-65
2021/01/10 10:25:18;;;;;;;;;;;;;;;2.65;74.66;99561.16;2136932;83;20231;-69
2021/01/10 10:28:20;;;;;;;;;;;;;;;2.55;72.84;99567.37;2132514;83;20499;-67
2021/01/10 10:31:24;;;;;;;;;;;;;;;2.37;73.31;99562.03;2127086;83;20168;-65
2021/01/10 10:34:27;;;;;;;;;;;;;;;2.37;73.46;99565.91;2127463;84;20136;-68
2021/01/10 10:37:29;;;;;;;;;;;;;;;2.75;73.80;99566.58;2127196;84;20248;-66
2021/01/10 10:40:31;;;;;;;;;;;;;;;3.27;73.79;99568.66;2127165;84;20232;-65
2021/01/10 10:43:33;;;;;;;;;;;;;;;3.98;72.46;99563.78;2127042;83;20300;-66
2021/01/10 10:46:40;;;;;;;;;;;;;;;4.39;71.30;99562.41;2127526;83;20228;-65
2021/01/10 10:49:40;;;;;;;;;;;;;;;4.64;70.60;99557.44;2126791;84;20272;-65
2021/01/10 10:52:42;;;;;;;;;;;;;;;4.78;67.83;99553.20;2127516;83;20148;-66
2021/01/10 10:55:44;;;;;;;;;;;;;;;4.85;68.39;99546.50;2127049;83;20228;-65
2021/01/10 10:58:46;;;;;;;;;;;;;;;4.83;67.16;99540.50;2127477;83;20148;-66
2021/01/10 11:01:49;;;;;;;;;;;;;;;4.73;68.57;99543.39;2127122;83;20551;-66
2021/01/10 11:04:51;;;;;;;;;;;;;;;4.84;67.79;99541.34;2127014;83;20235;-66
2021/01/10 11:07:54;;;;;;;;;;;;;;;4.77;69.17;99536.77;2127370;84;20227;-66
2021/01/10 11:10:56;;;;;;;;;;;;;;;4.56;65.38;99542.52;2127481;84;20231;-66
2021/01/10 11:13:58;;;;;;;;;;;;;;;3.97;64.24;99542.59;2127497;84;20153;-66
2021/01/10 11:17:01;;;;;;;;;;;;;;;3.49;65.36;99547.94;2127223;83;20231;-66
2021/01/10 11:20:04;;;;;;;;;;;;;;;2.93;65.04;99548.58;2127485;84;20125;-66
2021/01/10 11:23:07;;;;;;;;;;;;;;;2.59;66.63;99540.09;2127089;84;20499;-68
2021/01/10 11:26:09;;;;;;;;;;;;;;;2.30;68.12;99545.76;2127222;83;20483;-65
2021/01/10 11:29:12;;;;;;;;;;;;;;;2.14;66.83;99550.32;2137663;83;20148;-69
2021/01/10 11:32:16;;;;;;;;;;;;;;;1.90;68.09;99554.11;2143955;83;20427;-65
2021/01/10 11:35:18;;;;;;;;;;;;;;;1.59;67.64;99553.66;2143857;83;20135;-68
2021/01/10 11:38:20;;;;;;;;;;;;;;;1.33;69.64;99553.09;2144048;83;20235;-65
2021/01/10 11:41:23;;;;;;;;;;;;;;;1.28;70.31;99546.27;2144308;83;20140;-66
2021/01/10 11:44:25;;;;;;;;;;;;;;;1.19;69.43;99548.52;2143795;83;20236;-66
2021/01/10 11:47:27;;;;;;;;;;;;;;;1.12;69.81;99550.75;2144310;83;20236;-67
2021/01/10 11:50:29;;;;;;;;;;;;;;;1.15;69.89;99547.72;2143916;83;20507;-66
2021/01/10 11:53:32;;;;;;;;;;;;;;;1.12;70.87;99553.34;2143963;83;20499;-65
2021/01/10 11:56:34;;;;;;;;;;;;;;;1.10;70.75;99546.89;2144163;83;20594;-66
2021/01/10 11:59:37;;;;;;;;;;;;;;;1.10;70.60;99548.63;2143838;83;20148;-68
2021/01/10 12:02:39;;;;;;;;;;;;;;;1.04;71.08;99549.55;2143815;83;20235;-67
2021/01/10 12:05:42;;;;;;;;;;;;;;;1.07;71.48;99539.63;2143833;83;20443;-65
2021/01/10 12:08:44;;;;;;;;;;;;;;;1.14;71.68;99537.40;2143919;83;20569;-65
2021/01/10 12:11:46;;;;;;;;;;;;;;;1.15;71.84;99542.96;2144168;83;20135;-65
2021/01/10 12:14:48;;;;;;;;;;;;;;;1.05;71.16;99543.53;2143839;83;20158;-66
2021/01/10 12:17:50;;;;;;;;;;;;;;;0.94;71.94;99541.04;2143833;83;20172;-65
2021/01/10 12:20:53;;;;;;;;;;;;;;;0.90;72.81;99543.67;2144289;83;20255;-66
2021/01/10 12:23:55;;;;;;;;;;;;;;;0.85;73.10;99542.44;2143908;83;20553;-65
2021/01/10 12:26:57;;;;;;;;;;;;;;;0.74;73.15;99551.56;2143927;83;20498;-65
2021/01/10 12:29:59;;;;;;;;;;;;;;;0.63;73.29;99546.94;2130408;83;20227;-67
2021/01/10 12:33:01;;;;;;;;;;;;;;;0.60;74.01;99540.06;2127095;83;20415;-68
2021/01/10 12:36:04;;;;;;;;;;;;;;;0.66;74.04;99540.03;2127435;84;20220;-66
2021/01/10 12:39:06;;;;;;;;;;;;;;;0.69;74.32;99541.29;2127029;83;20416;-67
2021/01/10 12:42:08;;;;;;;;;;;;;;;0.74;73.97;99543.82;2126971;83;20231;-65
2021/01/10 12:45:10;;;;;;;;;;;;;;;0.83;73.33;99545.04;2106612;84;20497;-65
2021/01/10 12:48:12;;;;;;;;;;;;;;;0.86;73.56;99545.00;2127062;84;20514;-67
2021/01/10 12:51:15;;;;;;;;;;;;;;;0.89;72.15;99541.54;2127333;83;20488;-65
2021/01/10 12:54:17;;;;;;;;;;;;;;;0.79;71.46;99541.19;2127065;84;20503;-66
2021/01/10 12:57:19;;;;;;;;;;;;;;;0.75;71.59;99533.92;2126974;83;20243;-65
2021/01/10 13:00:22;;;;;;;;;;;;;;;0.78;71.48;99533.88;2127061;84;20424;-65
2021/01/10 13:03:24;;;;;;;;;;;;;;;0.82;70.94;99532.11;2106998;84;20260;-66
2021/01/10 13:06:26;;;;;;;;;;;;;;;0.79;71.29;99533.44;2127070;83;20231;-65
2021/01/10 13:09:29;;;;;;;;;;;;;;;0.73;70.65;99527.89;2127498;84;20145;-65
2021/01/10 13:12:31;;;;;;;;;;;;;;;0.75;71.21;99527.87;2127539;83;20240;-65
2021/01/10 13:15:34;;;;;;;;;;;;;;;0.71;71.38;99525.77;2127272;83;20546;-66
2021/01/10 13:18:36;;;;;;;;;;;;;;;0.69;71.25;99521.92;2127117;83;20136;-65
2021/01/10 13:21:38;;;;;;;;;;;;;;;0.76;72.00;99525.72;2127564;84;20240;-65
2021/01/10 13:24:41;;;;;;;;;;;;;;;0.84;72.92;99520.90;2127263;83;20161;-66
2021/01/10 13:27:43;;;;;;;;;;;;;;;0.94;72.92;99520.82;2127136;83;20224;-66
2021/01/10 13:30:45;;;;;;;;;;;;;;;1.17;72.49;99521.85;2127283;83;20416;-65
2021/01/10 13:33:47;;;;;;;;;;;;;;;1.10;71.35;99531.39;2127076;83;20125;-65
2021/01/10 13:36:49;;;;;;;;;;;;;;;1.03;71.77;99535.80;2127579;84;20165;-65
2021/01/10 13:39:51;;;;;;;;;;;;;;;0.98;71.40;99538.84;2127235;83;20145;-65
2021/01/10 13:42:54;;;;;;;;;;;;;;;0.96;71.51;99539.73;2127091;83;20196;-66
2021/01/10 13:45:56;;;;;;;;;;;;;;;0.89;70.75;99538.95;2127124;84;20136;-65
2021/01/10 13:48:58;;;;;;;;;;;;;;;0.85;70.62;99543.28;2127332;83;20227;-65
2021/01/10 13:52:00;;;;;;;;;;;;;;;0.75;70.96;99536.91;2127271;83;20176;-65
2021/01/10 13:55:03;;;;;;;;;;;;;;;0.67;71.61;99537.00;2127158;83;20443;-66
2021/01/10 13:58:05;;;;;;;;;;;;;;;0.65;71.60;99538.75;2127170;84;20129;-65
2021/01/10 14:01:07;;;;;;;;;;;;;;;0.68;71.25;99536.14;2127402;84;20153;-67
2021/01/10 14:04:09;;;;;;;;;;;;;;;0.70;71.50;99543.42;2135716;82;20225;-66
2021/01/10 14:07:13;;;;;;;;;;;;;;;0.79;71.66;99547.64;2142879;82;20218;-67
2021/01/10 14:10:15;;;;;;;;;;;;;;;1.01;71.88;99546.56;2164119;82;20225;-66
2021/01/10 14:13:17;;;;;;;;;;;;;;;1.04;70.85;99550.40;2159327;82;20230;-66
2021/01/10 14:16:20;;;;;;;;;;;;;;;0.89;70.39;99549.29;2163600;82;20238;-66
2021/01/10 14:19:23;;;;;;;;;;;;;;;0.80;71.60;99551.95;2142675;82;20142;-69
2021/01/10 14:22:25;;;;;;;;;;;;;;;0.75;70.83;99555.88;2163765;82;20524;-67
2021/01/10 14:25:27;;;;;;;;;;;;;;;0.66;70.91;99553.36;2142710;82;20132;-69
2021/01/10 14:28:30;;;;;;;;;;;;;;;0.60;70.93;99553.42;2146351;82;20364;-67
2021/01/10 14:31:32;;;;;;;;;;;;;;;0.55;71.41;99555.17;2144785;82;20125;-69
2021/01/10 14:34:34;;;;;;;;;;;;;;;0.51;71.67;99553.91;2162011;82;20288;-66
2021/01/10 14:37:37;;;;;;;;;;;;;;;0.51;71.03;99553.91;2162327;82;20230;-69
2021/01/10 14:40:39;;;;;;;;;;;;;;;0.46;71.66;99554.81;2163375;82;20504;-67
2021/01/10 14:43:41;;;;;;;;;;;;;;;0.46;72.12;99554.81;2163648;82;20233;-66
2021/01/10 14:46:43;;;;;;;;;;;;;;;0.45;72.38;99552.68;2162789;82;20190;-65
2021/01/10 14:49:46;;;;;;;;;;;;;;;0.44;71.89;99554.83;2163916;82;20123;-66
2021/01/10 14:52:48;;;;;;;;;;;;;;;0.48;72.40;99555.23;2164130;82;20229;-65
2021/01/10 14:55:50;;;;;;;;;;;;;;;0.39;69.19;99560.89;2163631;82;20138;-65
2021/01/10 14:58:52;;;;;;;;;;;;;;;0.21;69.45;99563.20;2163883;82;20233;-65
2021/01/10 15:01:54;;;;;;;;;;;;;;;0.05;67.89;99560.71;2164049;82;20241;-65
2021/01/10 15:04:57;;;;;;;;;;;;;;;0.06;68.16;99570.59;2163637;82;20158;-65
2021/01/10 15:07:59;;;;;;;;;;;;;;;0.03;67.12;99571.48;2163844;82;20225;-65
2021/01/10 15:11:01;;;;;;;;;;;;;;;-0.03;68.23;99574.08;2163714;82;20289;-65
2021/01/10 15:14:03;;;;;;;;;;;;;;;0.01;68.41;99577.52;2163615;82;20281;-66
2021/01/10 15:17:06;;;;;;;;;;;;;;;0.02;67.46;99576.22;2163629;82;20183;-66
2021/01/10 15:20:08;;;;;;;;;;;;;;;0.08;69.20;99581.77;2142648;82;20254;-69
2021/01/10 15:23:11;;;;;;;;;;;;;;;0.24;68.95;99578.20;2163672;82;20421;-66
2021/01/10 15:26:13;;;;;;;;;;;;;;;0.32;69.00;99582.89;2163541;82;20146;-65
2021/01/10 15:29:15;;;;;;;;;;;;;;;0.33;68.82;99580.74;2163475;82;20170;-65
2021/01/10 15:32:18;;;;;;;;;;;;;;;0.40;69.19;99575.08;2163562;82;20154;-65
2021/01/10 15:35:20;;;;;;;;;;;;;;;0.43;67.99;99584.12;2163944;82;20230;-66
2021/01/10 15:38:22;;;;;;;;;;;;;;;0.38;68.55;99583.72;2164017;82;20230;-66
2021/01/10 15:41:24;;;;;;;;;;;;;;;0.41;68.66;99584.55;2163579;82;20158;-65
2021/01/10 15:44:26;;;;;;;;;;;;;;;0.42;69.37;99582.39;2164058;82;20229;-68
2021/01/10 15:47:29;;;;;;;;;;;;;;;0.38;70.36;99582.44;2163704;82;20142;-65
2021/01/10 15:50:31;;;;;;;;;;;;;;;0.38;69.80;99583.28;2163787;82;20134;-65
2021/01/10 15:53:33;;;;;;;;;;;;;;;0.51;70.94;99578.88;2163697;82;20568;-65
2021/01/10 15:56:35;;;;;;;;;;;;;;;0.60;69.93;99578.79;2163687;82;20130;-66
2021/01/10 15:59:37;;;;;;;;;;;;;;;0.58;70.43;99571.95;2163564;82;20122;-64